Three Stars — 3ELI2 — position and weather

sailwx.info

Track history (hours):
 
Tides and Currents Weather Stations Pressure Air Temp Water Temp Dewpoint Dewpoint Depression Visibility Wind Speed Wind Dir Waves Ship Positions

Three Stars

Last reported at 2015-Aug-02 11:20 UTC. Time now 2015-Aug-02 12:17 UTC.
Position N 32°53' E 029°18'.

Length 225 m; draft 12.4 m.

Type: Cargo ship. MMSI: 372950000.

Date/timePositionNaut miles runAvg speedWind from/ knotsBaromVisibWave heightAir tempDewpointWater temp
2015-Aug-02 11:20N 32°53' E 029°18'1312.1
2015-Aug-02 10:13N 32°51' E 029°34'812.5
2015-Aug-02 09:33N 32°50' E 029°44'1211.7
2015-Aug-02 08:33N 32°44' E 029°55'8612.1
2015-Aug-02 01:26N 32°03' E 031°26'1212.1
2015-Aug-02 00:27N 31°57' E 031°38'1111.9
2015-Aug-01 23:33N 31°52' E 031°48'2411.6
2015-Aug-01 21:30N 31°36' E 032°10'1211.2
2015-Aug-01 20:28N 31°28' E 032°19'12 9.2
2015-Aug-01 19:10N 31°16' E 032°22'6 6.9
2015-Aug-01 18:18N 31°10' E 032°20'7 9.4
2015-Aug-01 17:32N 31°03' E 032°19'  
Track history (hours):
 
Tides and Currents Weather Stations Pressure Air Temp Water Temp Dewpoint Dewpoint Depression Visibility Wind Speed Wind Dir Waves Ship Positions

Three Stars

Last reported at 2015-Aug-02 11:20 UTC. Time now 2015-Aug-02 12:17 UTC.
Position N 32°53' E 029°18'.

Length 225 m; draft 12.4 m.

Type: Cargo ship. MMSI: 372950000.

Date/timePositionNaut miles runAvg speedWind from/ knotsBaromVisibWave heightAir tempDewpointWater temp
2015-Aug-02 11:20N 32°53' E 029°18'1312.1
2015-Aug-02 10:13N 32°51' E 029°34'812.5
2015-Aug-02 09:33N 32°50' E 029°44'1211.7
2015-Aug-02 08:33N 32°44' E 029°55'8612.1
2015-Aug-02 01:26N 32°03' E 031°26'1212.1
2015-Aug-02 00:27N 31°57' E 031°38'1111.9
2015-Aug-01 23:33N 31°52' E 031°48'2411.6
2015-Aug-01 21:30N 31°36' E 032°10'1211.2
2015-Aug-01 20:28N 31°28' E 032°19'12 9.2
2015-Aug-01 19:10N 31°16' E 032°22'6 6.9
2015-Aug-01 18:18N 31°10' E 032°20'7 9.4
2015-Aug-01 17:32N 31°03' E 032°19'  

Dump ship's entire track history